Flight Track Log - Related Links

Times and Time Zones

All times are in EDT time to prevent confusion due to time zone crossing. See the N449ND flight status page for this flight to view local times or setup timezone preferences in your user account.

Time Position Orientation Groundspeed Altitude Reporting Facility
EDT Latitude Longitude Course Direction KTS MPH feet Rate Location/Type
Fri 07:28:36 PM 28.5667 -81.2333 138° Southeast 87 100 1,700  Level Orlando TRACON
Fri 07:29:30 PM 28.5667 -81.2167 90° East 80 92 2,000 167 Climbing Orlando TRACON
Fri 07:30:24 PM 28.5500 -81.2000 139° Southeast 86 99 2,000 211 Level Orlando TRACON
Fri 07:31:00 PM 28.3648 -81.1656 140° Southeast  Level Estimated
Fri 07:31:24 PM 28.5333 -81.1833 139° Southeast 81 93 2,400  Level Orlando TRACON
Fri 07:32:00 PM 28.3357 -81.1364 138° Southeast  Level FlightAware Approximate
Fri 07:33:00 PM 28.3067 -81.1071 138° Southeast  Level FlightAware Approximate
Fri 07:33:53 PM 28.4922 -81.1433 139° Southeast 83 96 3,600  Level Miami Center
Fri 07:34:54 PM 28.4742 -81.1286 144° Southeast 81 93 4,000 195 Climbing Miami Center
Fri 07:35:56 PM 28.4522 -81.1106 144° Southeast 95 109 4,000  Level Miami Center
Fri 07:36:57 PM 28.4311 -81.0939 145° Southeast 93 107 4,000  Level Miami Center
Fri 07:37:59 PM 28.4117 -81.0767 142° Southeast 91 105 4,000  Level Miami Center
Fri 07:39:00 PM 28.3883 -81.0578 145° Southeast 88 101 4,000  Level Miami Center
Fri 07:40:02 PM 28.3678 -81.0442 150° Southeast 88 101 4,000  Level Miami Center
Fri 07:41:03 PM 28.3483 -81.0264 141° Southeast 88 101 4,000  Level Miami Center
Fri 07:42:05 PM 28.3269 -81.0094 145° Southeast 91 105 4,000  Level Miami Center
Fri 07:43:06 PM 28.3058 -80.9936 147° Southeast 91 105 4,000  Level Miami Center
Fri 07:44:08 PM 28.2850 -80.9775 146° Southeast 91 105 4,000  Level Miami Center
Fri 07:45:09 PM 28.2647 -80.9608 144° Southeast 91 105 4,000  Level Miami Center
Fri 07:46:11 PM 28.2442 -80.9447 145° Southeast 91 105 4,000  Level Miami Center
Fri 07:47:12 PM 28.2231 -80.9281 145° Southeast 91 105 4,000  Level Miami Center
Fri 07:48:14 PM 28.1994 -80.9094 145° Southeast 90 104 4,000  Level Miami Center
Fri 07:49:15 PM 28.1789 -80.8928 144° Southeast 90 104 4,000  Level Miami Center
Fri 07:50:17 PM 28.1581 -80.8764 145° Southeast 90 104 4,000  Level Miami Center
Fri 07:51:18 PM 28.1378 -80.8603 145° Southeast 90 104 4,000  Level Miami Center
Fri 07:52:19 PM 28.1169 -80.8433 144° Southeast 90 104 4,000  Level Miami Center
Fri 07:53:21 PM 28.0928 -80.8292 153° Southeast 90 104 4,000  Level Miami Center
Fri 07:54:22 PM 28.0711 -80.8133 147° Southeast 90 104 4,000  Level Miami Center
Fri 07:55:24 PM 28.0542 -80.7919 132° Southeast 89 102 4,000  Level Miami Center
Fri 07:56:25 PM 28.0336 -80.7756 145° Southeast 88 101 4,000  Level Miami Center
Fri 07:57:26 PM 28.0153 -80.7592 142° Southeast 88 101 4,000  Level Miami Center
Fri 07:58:28 PM 27.9950 -80.7419 143° Southeast 88 101 4,000  Level Miami Center
Fri 07:59:29 PM 27.9750 -80.7242 142° Southeast 88 101 4,000  Level Miami Center
Fri 08:00:31 PM 27.9592 -80.7075 137° Southeast 87 100 4,000  Level Miami Center
Fri 08:01:32 PM 27.9367 -80.6939 152° Southeast 86 99 4,000  Level Miami Center
Fri 08:02:34 PM 27.9183 -80.6739 136° Southeast 86 99 4,000  Level Miami Center
Fri 08:03:35 PM 27.8972 -80.6572 145° Southeast 87 100 4,000  Level Miami Center
Fri 08:04:36 PM 27.8789 -80.6408 142° Southeast 87 100 4,000  Level Miami Center
Fri 08:05:38 PM 27.8589 -80.6236 143° Southeast 87 100 4,000  Level Miami Center
Fri 08:06:39 PM 27.8386 -80.6058 142° Southeast 87 100 4,000  Level Miami Center
Fri 08:07:40 PM 27.8194 -80.5917 147° Southeast 87 100 4,000  Level Miami Center
Fri 08:08:42 PM 27.7992 -80.5733 141° Southeast 87 100 4,000  Level Miami Center
Fri 08:09:43 PM 27.7775 -80.5569 146° Southeast 88 101 4,000  Level Miami Center
Fri 08:10:44 PM 27.7578 -80.5422 147° Southeast 88 101 4,000  Level Miami Center
Fri 08:11:46 PM 27.7361 -80.5267 148° Southeast 88 101 4,000  Level Miami Center
Fri 08:12:47 PM 27.7131 -80.5125 151° Southeast 88 101 4,000  Level Miami Center
Fri 08:13:48 PM 27.6931 -80.4981 147° Southeast 88 101 4,000 49 Level Miami Center
Fri 08:14:50 PM 27.6731 -80.4808 143° Southeast 88 101 4,100  Climbing Miami Center
Fri 08:15:51 PM 27.6644 -80.4992 242° Southwest 100 115 4,000 -49 Descending Miami Center
Fri 08:16:52 PM 27.6744 -80.5319 289° West 103 119 4,000 49 Level Miami Center
Fri 08:17:54 PM 27.6942 -80.5306 North 107 123 4,100 49 Climbing Miami Center
Fri 08:18:55 PM 27.6836 -80.5042 114° Southeast 87 100 4,100  Level Miami Center
Fri 08:19:56 PM 27.6692 -80.4861 132° Southeast 89 102 4,100  Level Miami Center
Fri 08:20:57 PM 27.6703 -80.5131 273° West 101 116 4,100  Level Miami Center
Fri 08:21:59 PM 27.6867 -80.5347 311° West 107 123 4,100  Level Miami Center
Fri 08:23:00 PM 27.6847 -80.5078 95° East 91 105 4,100  Level Miami Center
Fri 08:24:01 PM 27.6758 -80.4828 112° Southeast 89 102 4,100 -148 Level Miami Center
Fri 08:25:02 PM 27.6519 -80.4731 160° South 92 106 3,800 -341 Descending Miami Center
Fri 08:26:04 PM 27.6297 -80.4586 150° Southeast 90 104 3,400 -488 Descending Miami Center
Fri 08:27:05 PM 27.6075 -80.4439 150° Southeast 90 104 2,800 -590 Descending Miami Center
Fri 08:28:06 PM 27.5886 -80.4319 151° Southeast 84 97 2,200 -689 Descending Miami Center
Fri 08:29:07 PM 27.5714 -80.4203 149° Southeast 72 83 1,400 -780 Descending Miami Center
Fri 08:30:09 PM 27.5503 -80.4078 152° Southeast 79 91 600 -293 Descending Miami Center
Fri 08:31:10 PM 27.5328 -80.3958 149° Southeast 79 91 800 -49 Climbing Miami Center
Fri 08:32:11 PM 27.5106 -80.3819 151° Southeast 86 99 500 -344 Descending Miami Center
Fri 08:33:12 PM 27.4969 -80.3731 150° Southeast 77 89 100 -393 Descending Miami Center

Login

Don't have an account? Register now (free) for customized features, flight alerts, and more!